Time;durP1;ratioP1;P1;durP2;ratioP2;P2;SDS_P1;SDS_P2;PMS_P1;PMS_P2;Temp;Humidity;BMP_temperature;BMP_pressure;BME280_temperature;BME280_humidity;BME280_pressure;Samples;Min_cycle;Max_cycle;Signal;HPM_P1;HPM_P2
2022/11/23 00:04:01;;;;;;;12.00;6.47;;;;;;;;;;10482410;28;20225;-71
2022/11/23 00:09:03;;;;;;;13.07;6.47;;;;;;;;;;10486501;28;20276;-70
2022/11/23 00:14:04;;;;;;;8.05;5.68;;;;;;;;;;10499373;28;20720;-70
2022/11/23 00:19:05;;;;;;;12.05;6.65;;;;;;;;;;10497411;28;20661;-69
2022/11/23 00:24:07;;;;;;;10.77;6.78;;;;;;;;;;10460690;28;20225;-68
2022/11/23 00:29:08;;;;;;;15.45;6.57;;;;;;;;;;10446398;28;20275;-69
2022/11/23 00:34:09;;;;;;;10.38;6.28;;;;;;;;;;10446031;28;20289;-68
2022/11/23 00:39:10;;;;;;;9.23;6.45;;;;;;;;;;10446074;28;20627;-67
2022/11/23 00:44:11;;;;;;;8.27;6.43;;;;;;;;;;10446210;28;20222;-68
2022/11/23 00:49:12;;;;;;;20.42;6.65;;;;;;;;;;10444096;28;20207;-68
2022/11/23 00:54:13;;;;;;;12.40;6.63;;;;;;;;;;10443686;28;20213;-68
2022/11/23 00:59:15;;;;;;;12.45;6.43;;;;;;;;;;10445204;28;20213;-68
2022/11/23 01:04:16;;;;;;;11.45;6.05;;;;;;;;;;10443610;28;20317;-68
2022/11/23 01:09:19;;;;;;;10.20;5.80;;;;;;;;;;10427042;28;20218;-69
2022/11/23 01:14:24;;;;;;;11.02;6.18;;;;;;;;;;10444537;28;20296;-68
2022/11/23 01:19:25;;;;;;;15.77;6.72;;;;;;;;;;10453295;28;20233;-68
2022/11/23 01:24:26;;;;;;;10.82;5.18;;;;;;;;;;10500675;28;20625;-68
2022/11/23 01:29:27;;;;;;;6.35;5.10;;;;;;;;;;10495012;28;20202;-68
2022/11/23 01:34:29;;;;;;;14.68;7.20;;;;;;;;;;10507346;28;20217;-69
2022/11/23 01:39:32;;;;;;;11.45;5.88;;;;;;;;;;10497358;28;20220;-69
2022/11/23 01:44:35;;;;;;;11.50;5.10;;;;;;;;;;10507906;28;20217;-69
2022/11/23 01:49:38;;;;;;;13.18;5.63;;;;;;;;;;10489539;28;20271;-69
2022/11/23 01:54:51;;;;;;;9.50;5.78;;;;;;;;;;10489430;28;20302;-69
2022/11/23 01:59:52;;;;;;;10.57;6.05;;;;;;;;;;10504729;28;20260;-69
2022/11/23 02:04:54;;;;;;;15.95;6.88;;;;;;;;;;10507477;28;20303;-68
2022/11/23 02:09:56;;;;;;;9.93;6.40;;;;;;;;;;10497012;28;20225;-69
2022/11/23 02:14:57;;;;;;;8.13;5.10;;;;;;;;;;10489792;28;20205;-68
2022/11/23 02:20:09;;;;;;;10.80;6.70;;;;;;;;;;10506812;28;20264;-68
2022/11/23 02:25:24;;;;;;;11.20;6.13;;;;;;;;;;10489720;28;20726;-69
2022/11/23 02:30:28;;;;;;;11.07;6.25;;;;;;;;;;10488791;28;20222;-68
2022/11/23 02:35:29;;;;;;;9.32;5.93;;;;;;;;;;10488570;28;20229;-68
2022/11/23 02:40:32;;;;;;;7.88;5.63;;;;;;;;;;10496761;28;20218;-68
2022/11/23 02:45:33;;;;;;;8.23;5.65;;;;;;;;;;10490947;28;20209;-68
2022/11/23 02:50:35;;;;;;;10.88;4.80;;;;;;;;;;10486340;28;20224;-69
2022/11/23 02:55:36;;;;;;;8.13;4.60;;;;;;;;;;10503007;28;20697;-68
2022/11/23 03:00:37;;;;;;;7.30;4.47;;;;;;;;;;10476114;28;20266;-68
2022/11/23 03:05:38;;;;;;;6.55;4.80;;;;;;;;;;10490806;28;20217;-68
2022/11/23 03:10:40;;;;;;;7.35;5.20;;;;;;;;;;10493634;28;20213;-68
2022/11/23 03:15:41;;;;;;;11.13;5.68;;;;;;;;;;10487828;28;20233;-69
2022/11/23 03:20:44;;;;;;;14.23;5.28;;;;;;;;;;10477297;28;20245;-68
2022/11/23 03:25:45;;;;;;;6.50;4.82;;;;;;;;;;10492628;28;20214;-68
2022/11/23 03:30:50;;;;;;;8.48;4.43;;;;;;;;;;10471480;28;20217;-69
2022/11/23 03:35:52;;;;;;;9.93;5.95;;;;;;;;;;10491915;28;20244;-68
2022/11/23 03:41:00;;;;;;;5.32;4.82;;;;;;;;;;10501395;28;20214;-68
2022/11/23 03:46:11;;;;;;;8.98;5.22;;;;;;;;;;10487470;28;20218;-68
2022/11/23 03:51:13;;;;;;;12.02;5.72;;;;;;;;;;10498713;28;20217;-68
2022/11/23 03:56:14;;;;;;;6.40;4.95;;;;;;;;;;10485704;28;20248;-68
2022/11/23 04:01:19;;;;;;;11.23;5.40;;;;;;;;;;10486813;28;20713;-68
2022/11/23 04:06:25;;;;;;;9.07;5.20;;;;;;;;;;10488405;28;20209;-68
2022/11/23 04:11:35;;;;;;;11.85;5.28;;;;;;;;;;10471531;28;20241;-68
2022/11/23 04:16:36;;;;;;;7.97;5.72;;;;;;;;;;10488847;28;20217;-68
2022/11/23 04:21:39;;;;;;;9.40;4.88;;;;;;;;;;10463548;28;20371;-69
2022/11/23 04:26:40;;;;;;;11.75;4.82;;;;;;;;;;10444652;28;20207;-70
2022/11/23 04:31:43;;;;;;;7.78;4.80;;;;;;;;;;10449402;28;20244;-70
2022/11/23 04:36:51;;;;;;;6.43;5.05;;;;;;;;;;10444969;28;20215;-69
2022/11/23 04:41:55;;;;;;;7.53;4.93;;;;;;;;;;10444111;28;20589;-69
2022/11/23 04:46:57;;;;;;;6.63;5.00;;;;;;;;;;10443356;28;20713;-69
2022/11/23 04:51:59;;;;;;;10.20;4.75;;;;;;;;;;10433372;28;20650;-69
2022/11/23 04:57:06;;;;;;;9.45;5.15;;;;;;;;;;10444172;28;20207;-69
2022/11/23 05:02:09;;;;;;;9.75;5.65;;;;;;;;;;10441930;28;20213;-68
2022/11/23 05:07:21;;;;;;;9.18;5.55;;;;;;;;;;10445184;28;20244;-69
2022/11/23 05:12:29;;;;;;;10.07;5.82;;;;;;;;;;10445991;28;20240;-69
2022/11/23 05:17:32;;;;;;;6.35;4.10;;;;;;;;;;10447790;28;20702;-68
2022/11/23 05:22:33;;;;;;;5.82;4.88;;;;;;;;;;10483139;28;20232;-69
2022/11/23 05:27:35;;;;;;;8.35;4.78;;;;;;;;;;10489290;28;20210;-69
2022/11/23 05:32:36;;;;;;;8.98;5.10;;;;;;;;;;10483759;28;21072;-69
2022/11/23 05:37:39;;;;;;;7.85;4.85;;;;;;;;;;10483488;28;20688;-70
2022/11/23 05:42:43;;;;;;;11.27;5.85;;;;;;;;;;10485038;28;20217;-69
2022/11/23 05:47:55;;;;;;;11.95;5.70;;;;;;;;;;10479002;28;20213;-69
2022/11/23 05:53:08;;;;;;;9.52;5.32;;;;;;;;;;10479143;28;20492;-70
2022/11/23 05:58:10;;;;;;;7.53;5.43;;;;;;;;;;10471356;28;20709;-69
2022/11/23 06:03:11;;;;;;;10.65;6.10;;;;;;;;;;10496499;28;20579;-69
2022/11/23 06:08:14;;;;;;;10.65;5.70;;;;;;;;;;10482332;28;20218;-69
2022/11/23 06:13:15;;;;;;;16.55;5.90;;;;;;;;;;10482567;28;20220;-69
2022/11/23 06:18:18;;;;;;;16.98;6.47;;;;;;;;;;10485940;28;20644;-68
2022/11/23 06:23:23;;;;;;;11.57;6.60;;;;;;;;;;10484489;28;20226;-68
2022/11/23 06:28:26;;;;;;;10.82;5.95;;;;;;;;;;10483892;28;20301;-68
2022/11/23 06:33:28;;;;;;;13.73;7.18;;;;;;;;;;10479615;28;20308;-68
2022/11/23 06:38:30;;;;;;;7.28;5.90;;;;;;;;;;10495716;28;20376;-68
2022/11/23 06:43:42;;;;;;;10.25;6.32;;;;;;;;;;10482512;28;20821;-67
2022/11/23 06:48:46;;;;;;;12.38;6.93;;;;;;;;;;10483543;28;20217;-68
2022/11/23 06:53:48;;;;;;;10.73;5.85;;;;;;;;;;10467680;28;20222;-68
2022/11/23 06:58:51;;;;;;;10.35;6.95;;;;;;;;;;10487383;28;20241;-68
2022/11/23 07:03:57;;;;;;;10.73;6.55;;;;;;;;;;10487240;28;20214;-68
2022/11/23 07:09:12;;;;;;;9.38;5.88;;;;;;;;;;10486780;28;20210;-66
2022/11/23 07:14:32;;;;;;;10.68;6.72;;;;;;;;;;10496331;28;20225;-67
2022/11/23 07:19:34;;;;;;;8.82;5.07;;;;;;;;;;10484443;28;20232;-67
2022/11/23 07:24:36;;;;;;;8.45;5.40;;;;;;;;;;10484065;28;20238;-67
2022/11/23 07:29:37;;;;;;;7.15;4.97;;;;;;;;;;10481334;28;20236;-68
2022/11/23 07:34:38;;;;;;;8.60;5.30;;;;;;;;;;10484584;28;20205;-68
2022/11/23 07:39:41;;;;;;;6.93;4.63;;;;;;;;;;10484418;28;20209;-68
2022/11/23 07:44:42;;;;;;;12.02;5.88;;;;;;;;;;10491409;28;20664;-68
2022/11/23 07:49:44;;;;;;;8.20;5.75;;;;;;;;;;10486893;28;20267;-69
2022/11/23 07:54:45;;;;;;;5.82;5.25;;;;;;;;;;10496887;28;20204;-67
2022/11/23 07:59:46;;;;;;;9.32;5.43;;;;;;;;;;10487800;28;20210;-65
2022/11/23 08:04:47;;;;;;;6.80;5.03;;;;;;;;;;10501340;28;20724;-68
2022/11/23 08:09:49;;;;;;;7.88;4.90;;;;;;;;;;10495451;28;20253;-67
2022/11/23 08:14:50;;;;;;;5.68;5.18;;;;;;;;;;10489191;28;20671;-71
2022/11/23 08:19:51;;;;;;;10.35;5.78;;;;;;;;;;10476656;28;20222;-71
2022/11/23 08:24:52;;;;;;;7.35;4.28;;;;;;;;;;10496021;28;20209;-71
2022/11/23 08:29:54;;;;;;;5.63;4.18;;;;;;;;;;10475883;28;20217;-70
2022/11/23 08:34:55;;;;;;;6.20;4.30;;;;;;;;;;10493487;28;20353;-70
2022/11/23 08:39:56;;;;;;;4.38;3.97;;;;;;;;;;10497034;28;20210;-71
2022/11/23 08:44:58;;;;;;;4.60;3.78;;;;;;;;;;10492059;28;20716;-71
2022/11/23 08:50:00;;;;;;;4.95;4.47;;;;;;;;;;10495888;28;20224;-69
2022/11/23 08:55:01;;;;;;;7.25;3.80;;;;;;;;;;10510728;28;20213;-68
2022/11/23 09:00:04;;;;;;;11.07;4.55;;;;;;;;;;10515486;28;20213;-69
2022/11/23 09:05:06;;;;;;;4.03;3.70;;;;;;;;;;10509903;28;20192;-71
2022/11/23 09:10:07;;;;;;;6.25;3.80;;;;;;;;;;10494961;28;20210;-70
2022/11/23 09:15:09;;;;;;;8.02;4.00;;;;;;;;;;10493892;28;20271;-70
2022/11/23 09:20:10;;;;;;;6.15;3.80;;;;;;;;;;10493133;28;20591;-71
2022/11/23 09:25:12;;;;;;;6.47;3.95;;;;;;;;;;10505285;28;20181;-71
2022/11/23 09:30:13;;;;;;;6.43;4.63;;;;;;;;;;10491908;28;20224;-71
2022/11/23 09:35:15;;;;;;;4.20;3.85;;;;;;;;;;10495690;28;20174;-70
2022/11/23 09:40:16;;;;;;;6.75;4.45;;;;;;;;;;10508283;28;20224;-70
2022/11/23 09:45:20;;;;;;;5.00;3.60;;;;;;;;;;10482363;28;20198;-69
2022/11/23 09:50:40;;;;;;;5.82;3.22;;;;;;;;;;10476554;28;20692;-71
2022/11/23 09:55:42;;;;;;;2.88;2.78;;;;;;;;;;10485835;28;20210;-73
2022/11/23 10:00:55;;;;;;;5.25;3.03;;;;;;;;;;10504322;28;20349;-73
2022/11/23 10:06:02;;;;;;;5.68;3.35;;;;;;;;;;10485055;28;20213;-69
2022/11/23 10:11:06;;;;;;;3.05;2.67;;;;;;;;;;10486535;28;20300;-69
2022/11/23 10:16:25;;;;;;;3.28;2.50;;;;;;;;;;10501238;28;20210;-69
2022/11/23 10:21:36;;;;;;;5.25;3.13;;;;;;;;;;10473850;28;20280;-71
2022/11/23 10:26:40;;;;;;;8.15;2.72;;;;;;;;;;10461817;28;20256;-72
2022/11/23 10:31:43;;;;;;;3.28;2.92;;;;;;;;;;10443909;28;20226;-70
2022/11/23 10:36:44;;;;;;;1.90;1.80;;;;;;;;;;10441226;28;20218;-70
2022/11/23 10:41:45;;;;;;;4.75;2.72;;;;;;;;;;10453969;28;20672;-70
2022/11/23 10:46:47;;;;;;;6.00;2.38;;;;;;;;;;10446927;28;20215;-70
2022/11/23 10:51:53;;;;;;;4.78;2.03;;;;;;;;;;10457863;28;20215;-70
2022/11/23 10:56:54;;;;;;;3.08;2.28;;;;;;;;;;10461524;28;20219;-71
2022/11/23 11:02:16;;;;;;;2.33;2.13;;;;;;;;;;10453652;28;20297;-71
2022/11/23 11:07:25;;;;;;;3.08;2.13;;;;;;;;;;10457113;28;20309;-71
2022/11/23 11:12:28;;;;;;;1.98;1.77;;;;;;;;;;10451402;28;20432;-70
2022/11/23 11:17:31;;;;;;;6.43;2.17;;;;;;;;;;10455115;28;20634;-70
2022/11/23 11:22:34;;;;;;;3.95;2.10;;;;;;;;;;10486005;28;20882;-70
2022/11/23 11:27:35;;;;;;;3.20;2.40;;;;;;;;;;10487054;28;20296;-70
2022/11/23 11:32:45;;;;;;;2.70;1.90;;;;;;;;;;10498487;28;20217;-69
2022/11/23 11:37:49;;;;;;;2.38;2.08;;;;;;;;;;10497959;28;20214;-70
2022/11/23 11:42:53;;;;;;;3.05;1.63;;;;;;;;;;10499018;28;20218;-69
2022/11/23 11:47:54;;;;;;;4.00;2.00;;;;;;;;;;10490616;28;20259;-69
2022/11/23 11:52:59;;;;;;;2.20;1.40;;;;;;;;;;10483622;28;20221;-69
2022/11/23 11:58:01;;;;;;;2.30;1.65;;;;;;;;;;10494694;28;20625;-70
2022/11/23 12:03:19;;;;;;;1.58;1.17;;;;;;;;;;10490213;28;20213;-69
2022/11/23 12:08:33;;;;;;;1.02;0.93;;;;;;;;;;10490220;28;21141;-70
2022/11/23 12:13:35;;;;;;;2.05;0.52;;;;;;;;;;10497827;28;20253;-70
2022/11/23 12:18:37;;;;;;;1.45;0.70;;;;;;;;;;10490894;28;20290;-69
2022/11/23 12:23:38;;;;;;;0.93;0.70;;;;;;;;;;10483106;28;20209;-69
2022/11/23 12:28:39;;;;;;;3.47;0.93;;;;;;;;;;10499269;28;20613;-70
2022/11/23 12:33:40;;;;;;;1.38;0.60;;;;;;;;;;10494444;28;21012;-70
2022/11/23 12:38:41;;;;;;;1.25;1.15;;;;;;;;;;10489450;28;20254;-69
2022/11/23 12:44:01;;;;;;;4.00;0.77;;;;;;;;;;10477242;28;20227;-69
2022/11/23 12:49:13;;;;;;;3.85;1.05;;;;;;;;;;10494359;28;20239;-71
2022/11/23 12:54:27;;;;;;;1.95;0.70;;;;;;;;;;10491627;28;20327;-69
2022/11/23 12:59:35;;;;;;;2.80;0.80;;;;;;;;;;10477408;28;20220;-70
2022/11/23 13:04:45;;;;;;;4.28;0.80;;;;;;;;;;10491336;28;20240;-69
2022/11/23 13:10:05;;;;;;;1.00;0.90;;;;;;;;;;10494224;28;20217;-70
2022/11/23 13:15:21;;;;;;;3.90;0.75;;;;;;;;;;10492828;28;20315;-72
2022/11/23 13:20:22;;;;;;;1.55;0.77;;;;;;;;;;10491675;28;20672;-73
2022/11/23 13:25:26;;;;;;;1.83;0.90;;;;;;;;;;10503065;28;20249;-73
2022/11/23 13:30:42;;;;;;;2.53;1.25;;;;;;;;;;10495298;28;20230;-73
2022/11/23 13:35:43;;;;;;;1.80;0.80;;;;;;;;;;10481205;28;20636;-72
2022/11/23 13:40:45;;;;;;;2.17;0.80;;;;;;;;;;10479839;28;20249;-71
2022/11/23 13:46:00;;;;;;;1.15;1.15;;;;;;;;;;10479973;28;20217;-71
2022/11/23 13:51:02;;;;;;;1.60;0.98;;;;;;;;;;10470999;28;20225;-71
2022/11/23 13:56:23;;;;;;;2.75;0.85;;;;;;;;;;10502986;28;20213;-72
2022/11/23 14:01:43;;;;;;;3.78;1.05;;;;;;;;;;10463503;28;20209;-72
2022/11/23 14:07:10;;;;;;;1.17;0.75;;;;;;;;;;10471686;28;20221;-72
2022/11/23 14:12:11;;;;;;;0.90;0.57;;;;;;;;;;10473477;28;20632;-72
2022/11/23 14:17:48;;;;;;;1.25;0.70;;;;;;;;;;10503869;28;20205;-71
2022/11/23 14:22:55;;;;;;;1.98;0.70;;;;;;;;;;10383681;28;20221;-70
2022/11/23 14:28:16;;;;;;;0.70;0.60;;;;;;;;;;10495169;28;20918;-71
2022/11/23 14:33:36;;;;;;;0.80;0.80;;;;;;;;;;10496655;28;20307;-69
2022/11/23 14:38:40;;;;;;;1.13;0.73;;;;;;;;;;10494739;28;20213;-70
2022/11/23 14:43:42;;;;;;;0.80;0.80;;;;;;;;;;10484902;28;20225;-71
2022/11/23 14:48:43;;;;;;;0.80;0.80;;;;;;;;;;10500682;28;21425;-72
2022/11/23 14:53:47;;;;;;;2.88;1.23;;;;;;;;;;10468597;28;20874;-70
2022/11/23 14:58:50;;;;;;;4.15;1.15;;;;;;;;;;10499728;28;20259;-70
2022/11/23 15:03:56;;;;;;;3.22;1.13;;;;;;;;;;10463505;28;20205;-69
2022/11/23 15:09:08;;;;;;;1.52;1.42;;;;;;;;;;10497187;28;20221;-71
2022/11/23 15:14:19;;;;;;;2.67;1.42;;;;;;;;;;10489034;28;20252;-72
2022/11/23 15:19:27;;;;;;;1.50;1.20;;;;;;;;;;10482556;28;20319;-72
2022/11/23 15:24:28;;;;;;;3.00;1.63;;;;;;;;;;10446718;28;20210;-72
2022/11/23 15:29:34;;;;;;;2.03;1.92;;;;;;;;;;10454680;28;20217;-71
2022/11/23 15:34:35;;;;;;;2.55;1.70;;;;;;;;;;10461536;28;20227;-71
2022/11/23 15:39:37;;;;;;;1.92;1.20;;;;;;;;;;10457602;28;20802;-72
2022/11/23 15:44:38;;;;;;;3.75;2.42;;;;;;;;;;10449465;28;20318;-72
2022/11/23 15:49:40;;;;;;;5.03;2.25;;;;;;;;;;10436139;28;20293;-72
2022/11/23 15:54:41;;;;;;;1.67;1.55;;;;;;;;;;10456491;28;20329;-70
2022/11/23 15:59:48;;;;;;;2.05;1.65;;;;;;;;;;10437774;28;20248;-71
2022/11/23 16:05:03;;;;;;;3.72;2.22;;;;;;;;;;10441528;28;20830;-70
2022/11/23 16:10:16;;;;;;;3.33;1.77;;;;;;;;;;10424526;28;20209;-71
2022/11/23 16:15:29;;;;;;;2.40;1.95;;;;;;;;;;10452953;28;20260;-71
2022/11/23 16:20:30;;;;;;;3.38;1.92;;;;;;;;;;10467687;28;20347;-71
2022/11/23 16:25:33;;;;;;;2.08;1.92;;;;;;;;;;10492001;28;20761;-71
2022/11/23 16:30:35;;;;;;;8.43;2.50;;;;;;;;;;10498550;28;20224;-71
2022/11/23 16:35:36;;;;;;;2.47;1.77;;;;;;;;;;10493310;28;20259;-72
2022/11/23 16:40:38;;;;;;;3.45;3.15;;;;;;;;;;10497261;28;20229;-69
2022/11/23 16:45:42;;;;;;;2.53;2.15;;;;;;;;;;10500621;28;20255;-68
2022/11/23 16:50:43;;;;;;;4.43;2.63;;;;;;;;;;10495280;28;20225;-68
2022/11/23 16:55:50;;;;;;;5.32;2.83;;;;;;;;;;10492169;28;20220;-71
2022/11/23 17:00:51;;;;;;;4.35;2.50;;;;;;;;;;10497442;28;20316;-71
2022/11/23 17:05:53;;;;;;;3.30;2.35;;;;;;;;;;10490423;28;20229;-69
2022/11/23 17:10:56;;;;;;;10.52;3.92;;;;;;;;;;10498873;28;20217;-67
2022/11/23 17:15:57;;;;;;;3.85;3.20;;;;;;;;;;10483461;28;20222;-68
2022/11/23 17:20:58;;;;;;;7.60;3.53;;;;;;;;;;10499046;28;20226;-71
2022/11/23 17:26:00;;;;;;;3.80;3.15;;;;;;;;;;10504070;28;20206;-68
2022/11/23 17:31:02;;;;;;;4.78;3.10;;;;;;;;;;10498159;28;20221;-70
2022/11/23 17:36:03;;;;;;;3.65;3.35;;;;;;;;;;10485400;28;20209;-69
2022/11/23 17:41:05;;;;;;;3.42;3.17;;;;;;;;;;10502381;28;20702;-68
2022/11/23 17:46:06;;;;;;;7.70;3.83;;;;;;;;;;10507661;28;20206;-69
2022/11/23 17:51:08;;;;;;;3.58;3.28;;;;;;;;;;10500752;28;20878;-69
2022/11/23 17:56:20;;;;;;;5.22;3.00;;;;;;;;;;10499695;28;20210;-70
2022/11/23 18:01:22;;;;;;;5.82;3.13;;;;;;;;;;10490011;28;20216;-71
2022/11/23 18:06:24;;;;;;;4.18;3.67;;;;;;;;;;10498694;28;20217;-77
2022/11/23 18:11:27;;;;;;;11.45;3.67;;;;;;;;;;10505221;28;20248;-68
2022/11/23 18:16:28;;;;;;;3.58;3.10;;;;;;;;;;10501493;28;20210;-66
2022/11/23 18:21:29;;;;;;;7.88;4.15;;;;;;;;;;10462263;28;21094;-67
2022/11/23 18:26:30;;;;;;;4.13;3.85;;;;;;;;;;10494898;28;20217;-67
2022/11/23 18:31:31;;;;;;;5.03;3.70;;;;;;;;;;10495021;28;20249;-69
2022/11/23 18:36:33;;;;;;;5.22;3.78;;;;;;;;;;10487711;28;20223;-70
2022/11/23 18:41:34;;;;;;;4.00;3.20;;;;;;;;;;10482982;28;20226;-71
2022/11/23 18:46:35;;;;;;;4.60;3.60;;;;;;;;;;10501196;28;20221;-68
2022/11/23 18:51:37;;;;;;;4.47;3.88;;;;;;;;;;10498873;28;20221;-69
2022/11/23 18:56:38;;;;;;;4.63;4.20;;;;;;;;;;10493929;28;20720;-72
2022/11/23 19:01:39;;;;;;;6.88;3.75;;;;;;;;;;10499566;28;20312;-70
2022/11/23 19:06:40;;;;;;;4.78;3.78;;;;;;;;;;10501326;28;20700;-71
2022/11/23 19:11:41;;;;;;;4.85;3.10;;;;;;;;;;10468188;28;20210;-70
2022/11/23 19:16:43;;;;;;;4.50;4.20;;;;;;;;;;10499519;28;20214;-72
2022/11/23 19:21:44;;;;;;;8.65;4.15;;;;;;;;;;10491515;28;20226;-71
2022/11/23 19:26:45;;;;;;;7.25;4.45;;;;;;;;;;10483775;28;20773;-73
2022/11/23 19:31:51;;;;;;;4.75;4.18;;;;;;;;;;10481936;28;20248;-73
2022/11/23 19:36:52;;;;;;;8.30;4.68;;;;;;;;;;10470856;28;20320;-70
2022/11/23 19:41:53;;;;;;;5.88;5.03;;;;;;;;;;10489408;28;20901;-68
2022/11/23 19:46:55;;;;;;;6.78;4.63;;;;;;;;;;10494133;28;20210;-70
2022/11/23 19:51:56;;;;;;;4.50;3.60;;;;;;;;;;10492153;28;20249;-69
2022/11/23 19:56:57;;;;;;;4.85;4.25;;;;;;;;;;10480828;28;20310;-69
2022/11/23 20:01:58;;;;;;;5.38;4.47;;;;;;;;;;10494210;28;20358;-69
2022/11/23 20:07:00;;;;;;;7.68;4.57;;;;;;;;;;10493525;28;20214;-71
2022/11/23 20:12:01;;;;;;;5.93;4.00;;;;;;;;;;10480976;28;20685;-68
2022/11/23 20:17:03;;;;;;;5.72;4.57;;;;;;;;;;10491223;28;20295;-70
2022/11/23 20:22:04;;;;;;;6.68;4.72;;;;;;;;;;10479551;28;20264;-68
2022/11/23 20:27:05;;;;;;;4.38;3.97;;;;;;;;;;10476622;28;20261;-69
2022/11/23 20:32:06;;;;;;;7.47;5.00;;;;;;;;;;10495209;28;20214;-69
2022/11/23 20:37:08;;;;;;;9.30;4.80;;;;;;;;;;10497911;28;20205;-68
2022/11/23 20:42:09;;;;;;;5.90;4.88;;;;;;;;;;10495798;28;20587;-72
2022/11/23 20:47:10;;;;;;;6.07;4.45;;;;;;;;;;10499602;28;20212;-68
2022/11/23 20:52:11;;;;;;;12.32;4.72;;;;;;;;;;10495992;28;20218;-67
2022/11/23 20:57:13;;;;;;;4.30;3.97;;;;;;;;;;10465214;28;20201;-69
2022/11/23 21:02:14;;;;;;;3.90;3.70;;;;;;;;;;10491526;28;20222;-70
2022/11/23 21:07:15;;;;;;;4.38;4.03;;;;;;;;;;10470452;28;20205;-71
2022/11/23 21:17:37;;;;;;;4.90;3.80;;;;;;;;;;10493891;28;20201;-71
2022/11/23 21:22:38;;;;;;;7.20;4.70;;;;;;;;;;10449240;28;20230;-70
2022/11/23 21:27:39;;;;;;;4.07;3.60;;;;;;;;;;10451770;28;20223;-70
2022/11/23 21:32:40;;;;;;;9.63;4.20;;;;;;;;;;10456220;28;20333;-70
2022/11/23 21:37:42;;;;;;;7.70;4.50;;;;;;;;;;10456440;28;20832;-70
2022/11/23 21:42:43;;;;;;;6.38;4.20;;;;;;;;;;10445584;28;20249;-69
2022/11/23 21:47:45;;;;;;;9.57;4.65;;;;;;;;;;10446096;28;20218;-70
2022/11/23 21:52:46;;;;;;;6.50;5.05;;;;;;;;;;10463013;28;20260;-70
2022/11/23 21:57:47;;;;;;;5.40;4.25;;;;;;;;;;10462023;28;20240;-70
2022/11/23 22:02:48;;;;;;;5.90;4.45;;;;;;;;;;10464554;28;20687;-70
2022/11/23 22:07:49;;;;;;;7.22;4.50;;;;;;;;;;10462974;28;20206;-70
2022/11/23 22:12:51;;;;;;;5.78;4.60;;;;;;;;;;10457712;28;20217;-69
2022/11/23 22:17:52;;;;;;;6.03;4.95;;;;;;;;;;10456961;28;20214;-69
2022/11/23 22:22:53;;;;;;;5.60;4.32;;;;;;;;;;10481863;28;20271;-69
2022/11/23 22:27:54;;;;;;;6.35;3.88;;;;;;;;;;10500046;28;20222;-69
2022/11/23 22:32:57;;;;;;;8.27;4.63;;;;;;;;;;10500025;28;20209;-69
2022/11/23 22:37:58;;;;;;;5.72;3.92;;;;;;;;;;10487858;28;20577;-69
2022/11/23 22:42:59;;;;;;;5.40;3.67;;;;;;;;;;10500681;28;20223;-69
2022/11/23 22:48:00;;;;;;;4.43;3.83;;;;;;;;;;10500931;28;20217;-69
2022/11/23 22:53:02;;;;;;;4.88;4.10;;;;;;;;;;10484002;28;20236;-69
2022/11/23 22:58:03;;;;;;;4.13;3.83;;;;;;;;;;10500499;28;20210;-70
2022/11/23 23:03:04;;;;;;;3.85;3.55;;;;;;;;;;10499454;28;20614;-69
2022/11/23 23:08:06;;;;;;;4.15;3.70;;;;;;;;;;10502861;28;20304;-70
2022/11/23 23:13:07;;;;;;;8.55;4.30;;;;;;;;;;10483729;28;20218;-69
2022/11/23 23:18:09;;;;;;;4.13;2.97;;;;;;;;;;10500682;28;20673;-70
2022/11/23 23:23:10;;;;;;;5.25;3.40;;;;;;;;;;10502078;28;20290;-69
2022/11/23 23:28:11;;;;;;;5.53;3.50;;;;;;;;;;10481713;28;20758;-69
2022/11/23 23:33:12;;;;;;;6.57;3.80;;;;;;;;;;10499666;28;20236;-69
2022/11/23 23:38:14;;;;;;;5.68;4.40;;;;;;;;;;10485934;28;20205;-69
2022/11/23 23:43:15;;;;;;;3.78;3.47;;;;;;;;;;10483478;28;21069;-69
2022/11/23 23:48:16;;;;;;;4.65;3.63;;;;;;;;;;10495836;28;20704;-69
2022/11/23 23:53:17;;;;;;;4.68;3.58;;;;;;;;;;10495358;28;20209;-69
2022/11/23 23:58:18;;;;;;;5.30;3.50;;;;;;;;;;10480288;28;20235;-70
